createdAt,value
2023-11-22T07:10:41.892Z,73.39
2023-11-22T07:13:08.574Z,72.99
2023-11-22T07:15:35.076Z,72.72
2023-11-22T07:18:01.790Z,72.71
2023-11-22T07:20:28.608Z,72.44
2023-11-22T07:22:58.075Z,72.38
2023-11-22T07:25:27.462Z,72.44
2023-11-22T07:27:54.390Z,72.49
2023-11-22T07:30:23.540Z,72.62
2023-11-22T07:32:52.510Z,72.51
2023-11-22T07:35:20.613Z,72.46
2023-11-22T07:37:48.534Z,72.46
2023-11-22T07:40:15.121Z,72.27
2023-11-22T07:42:43.068Z,71.89
2023-11-22T07:45:12.383Z,71.66
2023-11-22T07:47:41.009Z,71.62
2023-11-22T07:50:11.819Z,71.29
2023-11-22T07:52:40.752Z,70.78
2023-11-22T07:55:08.830Z,70.17
2023-11-22T07:57:35.717Z,69.95
2023-11-22T08:00:05.692Z,69.79
2023-11-22T08:02:43.807Z,69.06
2023-11-22T08:05:10.601Z,68.62
2023-11-22T08:22:40.801Z,68.79
2023-11-22T08:25:09.630Z,68.59
2023-11-22T08:27:37.046Z,68.69
2023-11-22T08:30:06.383Z,68.66
2023-11-22T08:32:34.476Z,68.29
2023-11-22T08:35:02.640Z,67.79
2023-11-22T08:37:30.627Z,66.57
2023-11-22T08:39:57.964Z,66.17
2023-11-22T08:42:25.083Z,66.03
2023-11-22T08:44:52.600Z,65.39
2023-11-22T08:47:19.808Z,64.38
2023-11-22T08:49:49.618Z,64.64
2023-11-22T08:52:16.991Z,65.66
2023-11-22T08:54:44.016Z,66.09
2023-11-22T08:57:11.358Z,66.43
2023-11-22T08:59:39.665Z,66.86
2023-11-22T09:02:09.182Z,66.77
2023-11-22T09:04:36.978Z,66.72
2023-11-22T09:07:05.042Z,66.92
2023-11-22T09:09:32.491Z,67.11
2023-11-22T09:12:00.336Z,67.14
2023-11-22T09:14:27.717Z,66.91
2023-11-22T09:16:56.185Z,67.17
2023-11-22T09:19:24.333Z,67.79
2023-11-22T09:21:51.999Z,68.04
2023-11-22T09:24:19.079Z,67.73
2023-11-22T09:26:46.836Z,68.02
2023-11-22T09:29:15.796Z,68.21
2023-11-22T09:31:44.204Z,68.52
2023-11-22T09:34:12.322Z,68.98
2023-11-22T09:36:40.087Z,69.05
2023-11-22T09:39:10.151Z,69.05
2023-11-22T09:41:37.532Z,68.91
2023-11-22T09:44:06.598Z,69.10
2023-11-22T09:46:35.978Z,69.47
2023-11-22T09:49:03.965Z,69.32
2023-11-22T09:51:33.681Z,69.45
2023-11-22T09:54:08.502Z,69.47
2023-11-22T09:56:38.513Z,69.26
2023-11-22T09:59:07.449Z,69.78
2023-11-22T10:01:38.261Z,69.85
2023-11-22T10:04:08.711Z,69.58
2023-11-22T10:06:36.935Z,69.28
2023-11-22T10:09:09.917Z,69.26
2023-11-22T10:11:40.132Z,69.38
2023-11-22T10:14:07.344Z,69.36
2023-11-22T10:16:34.373Z,69.15
2023-11-22T10:19:01.445Z,68.52
2023-11-22T10:21:31.526Z,68.79
2023-11-22T10:24:02.996Z,68.85
2023-11-22T10:26:30.279Z,69.13
2023-11-22T10:28:58.180Z,68.79
2023-11-22T10:31:26.108Z,69.03
2023-11-22T10:33:55.273Z,69.21
2023-11-22T10:36:22.652Z,69.67
2023-11-22T10:38:50.078Z,69.97
2023-11-22T10:41:17.480Z,69.88
2023-11-22T10:43:45.721Z,70.33
2023-11-22T10:46:14.245Z,70.54
2023-11-22T10:48:41.670Z,70.66
2023-11-22T10:51:08.714Z,70.86
2023-11-22T10:53:37.219Z,70.80
2023-11-22T10:56:16.997Z,70.83
2023-11-22T10:58:49.105Z,70.70
2023-11-22T11:01:23.335Z,70.73
2023-11-22T11:03:58.677Z,70.78
2023-11-22T11:06:33.016Z,70.74
2023-11-22T11:09:07.628Z,70.66
2023-11-22T11:11:35.755Z,70.69
2023-11-22T11:14:06.890Z,70.54
2023-11-22T11:16:42.620Z,70.72
2023-11-22T11:19:11.290Z,70.86
2023-11-22T11:21:38.444Z,70.95
2023-11-22T11:24:05.748Z,71.18
2023-11-22T11:26:39.078Z,71.62
2023-11-22T11:29:08.665Z,71.95
2023-11-22T11:31:41.143Z,71.96
2023-11-22T11:34:09.573Z,71.71
2023-11-22T11:36:38.896Z,72.03
2023-11-22T11:39:12.131Z,72.02
2023-11-22T11:41:40.692Z,72.32
2023-11-22T11:44:10.497Z,72.39
2023-11-22T11:46:41.126Z,72.15
2023-11-22T11:49:11.603Z,72.12
2023-11-22T11:51:39.535Z,71.95
2023-11-22T11:54:07.032Z,71.98
2023-11-22T11:56:37.518Z,71.83
2023-11-22T11:59:04.679Z,71.84
2023-11-22T12:01:34.169Z,71.92
2023-11-22T12:04:02.734Z,71.86
2023-11-22T12:06:30.218Z,71.59
2023-11-22T12:08:57.284Z,71.73
2023-11-22T12:11:24.304Z,71.59
2023-11-22T12:13:53.543Z,71.86
2023-11-22T12:16:20.575Z,71.91
2023-11-22T12:33:52.819Z,74.56
2023-11-22T12:36:21.542Z,75.02
2023-11-22T12:38:48.687Z,75.27
2023-11-22T12:41:16.381Z,75.47
2023-11-22T12:43:48.938Z,75.94
2023-11-22T12:46:19.302Z,76.53
2023-11-22T12:48:46.551Z,77.72
2023-11-22T12:51:27.815Z,78.78
2023-11-22T12:53:55.601Z,79.29
2023-11-22T12:56:22.975Z,80.03
2023-11-22T12:58:50.389Z,80.65
2023-11-22T13:01:17.689Z,81.17
2023-11-22T13:03:45.068Z,81.69
2023-11-22T13:06:12.581Z,81.98
2023-11-22T13:08:40.274Z,82.44
2023-11-22T13:11:08.925Z,83.01
2023-11-22T13:13:36.556Z,83.75
2023-11-22T13:18:33.517Z,84.38
2023-11-22T13:21:00.912Z,84.73
2023-11-22T13:23:27.975Z,85.16
2023-11-22T13:25:55.002Z,85.45
2023-11-22T13:28:22.237Z,85.72
2023-11-22T13:30:50.311Z,85.91
2023-11-22T13:33:17.444Z,86.50
2023-11-22T13:35:45.777Z,86.59
2023-11-22T13:38:13.085Z,86.65
2023-11-22T13:40:47.108Z,86.88
2023-11-22T13:43:14.961Z,87.13
2023-11-22T13:45:42.915Z,87.61
2023-11-22T13:48:13.051Z,87.72
2023-11-22T13:50:40.390Z,87.99
2023-11-22T13:53:07.483Z,88.31
2023-11-22T13:55:34.536Z,88.37
2023-11-22T13:58:01.746Z,88.58
2023-11-22T14:00:34.311Z,88.71
2023-11-22T14:03:09.165Z,88.89
2023-11-22T14:05:38.871Z,89.12
2023-11-22T14:08:07.743Z,89.19
2023-11-22T14:10:35.112Z,89.09
2023-11-22T14:13:04.145Z,89.23
2023-11-22T14:15:32.052Z,89.46
2023-11-22T14:17:59.401Z,89.76
2023-11-22T14:20:26.862Z,89.90
2023-11-22T14:22:54.282Z,90.07
2023-11-22T14:25:22.364Z,90.25
2023-11-22T14:27:54.006Z,90.27
2023-11-22T14:30:22.560Z,90.63
2023-11-22T14:32:51.124Z,90.68
2023-11-22T14:35:18.909Z,90.70
2023-11-22T14:37:46.062Z,90.67
2023-11-22T14:40:16.948Z,90.61
2023-11-22T14:42:45.825Z,90.79
2023-11-22T14:45:13.858Z,90.93
2023-11-22T14:47:41.572Z,91.05
2023-11-22T14:50:12.893Z,91.05
2023-11-22T14:52:40.917Z,91.05
2023-11-22T14:55:10.521Z,91.25
2023-11-22T14:57:38.365Z,91.28
2023-11-22T15:00:10.820Z,91.34
2023-11-22T15:02:38.074Z,91.39
2023-11-22T15:05:12.183Z,91.43
2023-11-22T15:07:42.678Z,91.47
2023-11-22T15:10:16.013Z,91.44
2023-11-22T15:12:43.726Z,91.34
2023-11-22T15:15:12.284Z,91.42
2023-11-22T15:17:39.556Z,91.56
2023-11-22T15:20:10.658Z,91.67
2023-11-22T15:22:38.370Z,91.83
2023-11-22T15:25:06.569Z,91.81
2023-11-22T15:27:33.725Z,91.80
2023-11-22T15:30:00.834Z,91.60
2023-11-22T15:32:28.283Z,91.66
2023-11-22T15:34:55.376Z,91.65
2023-11-22T15:37:22.317Z,91.78
2023-11-22T15:39:49.248Z,91.74
2023-11-22T15:42:17.368Z,91.72
2023-11-22T15:44:44.500Z,91.84
2023-11-22T15:47:14.592Z,91.89
2023-11-22T15:49:42.518Z,91.93
2023-11-22T15:52:09.708Z,91.71
2023-11-22T15:54:36.753Z,91.47
2023-11-22T15:57:04.247Z,91.29
2023-11-22T15:59:31.384Z,91.46
2023-11-22T16:01:58.561Z,91.35
2023-11-22T16:04:25.697Z,91.49
2023-11-22T16:06:52.802Z,91.64
2023-11-22T16:09:20.027Z,91.65
2023-11-22T16:11:47.324Z,91.51
2023-11-22T16:14:16.356Z,91.03
2023-11-22T16:16:43.778Z,90.50
2023-11-22T16:19:11.911Z,89.95
2023-11-22T16:21:40.719Z,89.35
2023-11-22T16:24:08.402Z,88.89
2023-11-22T16:26:35.610Z,88.29
2023-11-22T16:29:02.730Z,87.79
2023-11-22T16:31:29.853Z,87.52
2023-11-22T16:33:58.988Z,87.18
2023-11-22T16:36:26.546Z,86.71
2023-11-22T16:38:55.919Z,86.33
2023-11-22T16:41:25.973Z,85.80
2023-11-22T16:43:53.569Z,85.59
2023-11-22T16:46:20.642Z,85.20
2023-11-22T16:48:47.808Z,84.85
2023-11-22T16:51:16.921Z,84.28
2023-11-22T16:53:44.319Z,83.79
2023-11-22T16:56:11.372Z,83.10
2023-11-22T16:58:39.630Z,82.71
2023-11-22T17:01:06.946Z,82.30
2023-11-22T17:03:34.267Z,82.09
2023-11-22T17:06:01.648Z,82.03
2023-11-22T17:08:28.960Z,81.57
2023-11-22T17:10:56.094Z,81.42
2023-11-22T17:13:23.161Z,81.31
2023-11-22T17:15:50.084Z,80.95
2023-11-22T17:18:17.511Z,80.81
2023-11-22T17:20:44.824Z,80.87
2023-11-22T17:23:12.453Z,80.57
2023-11-22T17:25:39.661Z,80.48
2023-11-22T17:28:06.824Z,80.41
2023-11-22T17:30:34.931Z,80.47
2023-11-22T17:33:02.447Z,80.50
2023-11-22T17:35:29.734Z,80.57
2023-11-22T17:37:59.213Z,80.57
2023-11-22T17:40:26.950Z,80.45
2023-11-22T17:42:54.296Z,80.41
2023-11-22T17:45:21.480Z,80.41
2023-11-22T17:47:48.829Z,80.25
2023-11-22T17:50:19.174Z,80.24
2023-11-22T17:52:47.757Z,79.74
2023-11-22T17:55:15.452Z,79.63
2023-11-22T17:57:42.777Z,79.47
2023-11-22T18:00:11.198Z,79.35
2023-11-22T18:02:41.731Z,79.55
2023-11-22T18:05:09.136Z,79.64
2023-11-22T18:07:38.581Z,79.77
2023-11-22T18:10:09.266Z,79.85
2023-11-22T18:12:36.451Z,79.68
2023-11-22T18:15:03.949Z,79.53
2023-11-22T18:17:31.555Z,79.40
2023-11-22T18:19:59.106Z,79.32
2023-11-22T18:22:26.185Z,79.35
2023-11-22T18:24:53.352Z,79.45
2023-11-22T18:27:20.335Z,79.72
2023-11-22T18:29:47.326Z,79.63
2023-11-22T18:32:14.464Z,79.67
2023-11-22T18:34:42.128Z,79.64
2023-11-22T18:37:09.178Z,79.88
2023-11-22T18:39:36.316Z,80.05
2023-11-22T18:42:04.486Z,80.16
2023-11-22T18:44:32.155Z,80.12
2023-11-22T18:46:59.388Z,80.03
2023-11-22T18:49:28.301Z,79.85
2023-11-22T18:51:55.313Z,79.88
2023-11-22T18:54:22.492Z,80.01
2023-11-22T18:56:49.754Z,80.32
2023-11-22T18:59:16.920Z,80.25
2023-11-22T19:01:44.215Z,80.18
2023-11-22T19:04:11.340Z,80.54
2023-11-22T19:06:38.942Z,80.61
2023-11-22T19:09:11.215Z,80.47
2023-11-22T19:11:41.158Z,80.68
2023-11-22T19:14:08.709Z,80.92
2023-11-22T19:16:35.860Z,80.93
2023-11-22T19:19:03.635Z,81.07
2023-11-22T19:21:32.992Z,81.20
2023-11-22T19:24:02.543Z,81.34
2023-11-22T19:26:34.492Z,81.40
2023-11-22T19:29:02.271Z,81.39
2023-11-22T19:31:30.070Z,81.29
2023-11-22T19:33:57.658Z,81.32
2023-11-22T19:36:25.916Z,81.60
2023-11-22T19:38:55.465Z,81.89
2023-11-22T19:41:23.114Z,81.87
2023-11-22T19:43:50.535Z,81.82
2023-11-22T19:46:17.727Z,81.82
2023-11-22T19:48:45.231Z,81.50
2023-11-22T19:51:13.290Z,81.52
2023-11-22T19:53:40.387Z,81.69
2023-11-22T19:56:07.841Z,81.69
2023-11-22T19:58:35.578Z,81.64
2023-11-22T20:01:02.782Z,81.74
2023-11-22T20:03:30.086Z,81.92
2023-11-22T20:05:57.208Z,82.05
2023-11-22T20:08:24.392Z,82.10
2023-11-22T20:10:51.491Z,81.92
2023-11-22T20:13:18.550Z,81.57
2023-11-22T20:15:45.719Z,81.33
2023-11-22T20:18:12.893Z,81.09
2023-11-22T20:20:40.155Z,81.01
2023-11-22T20:23:07.881Z,81.14
2023-11-22T20:25:34.971Z,81.18
2023-11-22T20:28:02.513Z,81.00
2023-11-22T20:30:29.646Z,81.06
2023-11-22T20:32:56.929Z,80.74
2023-11-22T20:35:24.099Z,80.71
2023-11-22T20:37:51.093Z,80.52
2023-11-22T20:40:18.073Z,80.49
2023-11-22T20:42:45.275Z,80.60
2023-11-22T20:45:12.335Z,80.72
2023-11-22T20:47:41.484Z,80.95
2023-11-22T20:50:10.240Z,81.10
2023-11-22T20:52:37.433Z,81.14
2023-11-22T20:55:09.776Z,81.15
2023-11-22T20:57:38.756Z,81.13
2023-11-22T21:00:12.943Z,80.83
2023-11-22T21:02:40.866Z,80.75
2023-11-22T21:05:08.826Z,80.60
2023-11-22T21:07:36.083Z,80.69
2023-11-22T21:10:03.475Z,80.66
2023-11-22T21:12:30.697Z,80.80
2023-11-22T21:14:58.387Z,80.90
2023-11-22T21:17:36.723Z,80.81
2023-11-22T21:20:10.909Z,81.12
2023-11-22T21:22:39.097Z,81.47
2023-11-22T21:25:09.845Z,81.52
2023-11-22T21:27:37.750Z,81.63
2023-11-22T21:30:06.128Z,81.63
2023-11-22T21:32:33.814Z,81.60
2023-11-22T21:35:00.982Z,81.64
2023-11-22T21:37:28.383Z,81.59
2023-11-22T21:39:56.378Z,81.80
2023-11-22T21:42:23.344Z,81.66
2023-11-22T21:44:50.435Z,81.82
2023-11-22T21:47:17.709Z,81.93
2023-11-22T21:49:44.752Z,82.02
2023-11-22T21:52:11.708Z,82.07
2023-11-22T21:54:39.354Z,81.66
2023-11-22T21:57:06.906Z,81.74
2023-11-22T21:59:35.409Z,81.94
2023-11-22T22:02:02.914Z,82.18
2023-11-22T22:04:30.241Z,81.89
2023-11-22T22:06:57.340Z,81.67
2023-11-22T22:09:24.529Z,81.59
2023-11-22T22:11:51.568Z,81.59
2023-11-22T22:14:18.954Z,81.51
2023-11-22T22:16:48.010Z,81.59
2023-11-22T22:19:15.553Z,81.65
2023-11-22T22:21:42.738Z,81.60
2023-11-22T22:24:10.072Z,81.67
2023-11-22T22:26:37.335Z,82.03
2023-11-22T22:29:05.358Z,81.97
2023-11-22T22:31:32.404Z,81.66
2023-11-22T22:33:59.514Z,81.82
2023-11-22T22:36:26.546Z,81.99
2023-11-22T22:38:53.609Z,82.19
2023-11-22T22:41:21.157Z,82.37
2023-11-22T22:43:48.528Z,82.30
2023-11-22T22:46:16.054Z,82.15
2023-11-22T22:48:46.347Z,82.42
2023-11-22T22:51:14.633Z,82.59
2023-11-22T22:53:42.574Z,82.48
2023-11-22T22:56:09.602Z,82.22
2023-11-22T22:58:37.888Z,82.10
2023-11-22T23:01:05.635Z,81.83
2023-11-22T23:03:33.215Z,82.24
2023-11-22T23:06:00.440Z,82.15
2023-11-22T23:08:28.726Z,81.72
2023-11-22T23:10:55.929Z,81.65
2023-11-22T23:13:23.099Z,81.45
2023-11-22T23:15:50.085Z,81.37
2023-11-22T23:18:17.153Z,81.36
2023-11-22T23:20:49.733Z,81.24
2023-11-22T23:23:18.579Z,80.24
2023-11-22T23:25:45.874Z,79.28
2023-11-22T23:28:13.174Z,79.20
2023-11-22T23:30:40.394Z,79.25
2023-11-22T23:33:08.589Z,79.01
2023-11-22T23:35:35.931Z,79.15
2023-11-22T23:38:03.316Z,79.12
2023-11-22T23:40:30.738Z,79.28
2023-11-22T23:42:59.169Z,79.22
2023-11-22T23:45:26.772Z,79.19
2023-11-22T23:47:54.297Z,79.20
2023-11-22T23:50:21.524Z,79.20
2023-11-22T23:52:50.256Z,79.04
2023-11-22T23:55:17.694Z,79.12
2023-11-22T23:57:45.152Z,78.96
